Southlake's Hourly Summary for Sunday, May 6, 2018
Hour Temp
(f)
RH
(%)
Solar Rad.
(MJ/m2)
Rainfall
(in)
Wind
(mph)
5/6/2018 12:00 AM 57 93 0 0 1.04
5/6/2018 1:00 AM 56 95 0 0 1
5/6/2018 2:00 AM 55 97 0 0 1.28
5/6/2018 3:00 AM 54 98 0 0 1.06
5/6/2018 4:00 AM 53 99 0 0 1.12
5/6/2018 5:00 AM 52 99 0 0 1.17
5/6/2018 6:00 AM 52 99 0.01 0 1.17
5/6/2018 7:00 AM 54 99 0.27 0 0.95
5/6/2018 8:00 AM 66 72 1.07 0 1.56
5/6/2018 9:00 AM 73 53 1.85 0 2.8
5/6/2018 10:00 AM 77 43 2.56 0 4.08
5/6/2018 11:00 AM 79 36 3.13 0 3.8
5/6/2018 12:00 PM 81 31 3.51 0 3.86
5/6/2018 1:00 PM 83 28 3.65 0 3.41
5/6/2018 2:00 PM 84 27 3.53 0 3.41
5/6/2018 3:00 PM 86 26 3.17 0 2.96
5/6/2018 4:00 PM 87 25 2.64 0 2.35
5/6/2018 5:00 PM 88 24 1.94 0 2.57
5/6/2018 6:00 PM 87 24 1.19 0 3.3
5/6/2018 7:00 PM 84 30 0.4 0 3.58
5/6/2018 8:00 PM 79 39 0.02 0 2.96
5/6/2018 9:00 PM 76 45 0 0 3.08
5/6/2018 10:00 PM 72 58 0 0 1.34
5/6/2018 11:00 PM 67 72 0 0 1.01
Data Summary 70 58 28.94 0.00 2.29